Pagrindinis puslapis
METAR-TAF:

METAR-TAF

Oro uostai :

Taitis, Prancūzijos Polinezija

platuma: 17-33S, ilguma: 149-37W, Aukštis: 2 m

Dabartinis oras

Ataskaita buvo paskelbta 28 minutes, ne 02:00 UTC
Vėjas 7 kt iš Pietvakarių
Temperatūra 27°C
Drėgmė 66%
Slėgis 1013 hPa
Matomumas 10 km arba daugiau
Mažai debesys ne aukštis 2300 ft
Su prošvaistėmis ne aukštis 5000 ft

METAR: NTAA 170200Z 23007KT 9999 FEW023 BKN050 27/20 Q1013 WS ALL RWY NOSIG

Laikas: 16:28 (02:28 UTC)

Prognozė

Ataskaita buvo paskelbta 3 valandos ir 28 minutes, ne 23:00 UTC
Prognozė galioja nuo 17 metu 00 UTC su 18 metu 06 UTC
Vėjas 15 kt iš Šiaurės Rytų
Matomumas 10 km arba daugiau
Mažai debesys ne aukštis 2300 ft
Išsisklaidę debesys ne aukštis 6000 ft
Tapsmas
nuo 17 metu 04 UTC su 17 metu 06 UTC
Vėjas 3 kt nuo kintamojo kryptimis

TAF: NTAA 162300Z 1700/1806 04015KT 9999 FEW023 SCT060 BECMG 1704/1706 VRB03KT

Orai ataskaitas ir orų prognozės (METAR, TAF).

turimą stotys yra geltonos ir raudonos taškus žemėlapyje.

Perkelti pele per norėdami pamatyti stoties vardą.

Tada spustelėkite, norėdami matyti oro stebėjimo ir prognozės.

Norėdami pakeisti žemėlapį: spustelėkite ant žalios mygtukų su juodo kryžiaus žemyn,; žalią mygtuką su brūkšneliu, jei norite nutolinti; arba žalių rodyklių gretimoms žemėlapius.


METAR-TAF: